May 28, 2016
Temp
 
63.5 °F
 
Dew Pt.
 
55.4 °F
 
Humidity
 
75%
 
Pressure
 
1012.9 hPa 
  rising rapidly
Wind
 
0.0 mph 
    SW
Rain
 
0.00 in 
  0.00 in/hr
UV index
 
---  
 
Solar rad.
 
100 W/m²
 
Tonight

Tonight: Patchy fog after 11pm.  Otherwise, mostly clear during the early evening, then becoming mostly cloudy, with a low around 57. Southwest wind around 5 mph becoming calm  after midnight.
Patchy Fog


Sunday

Sunday: A 20 percent chance of showers and thunderstorms after 11am.  Patchy fog before 11am.  Otherwise, partly sunny, with a high near 77. South southwest wind 5 to 10 mph.
Slight Chance
T-storms and
Patchy Fog

Lo 57 °F Hi 77 °F
Statistics - 5/28/2016
Max Temp 80.5 °F  3:50 pm
Min Temp 56.2 °F  3:05 am
Max Dew Pt 59.4 °F  12:45 pm
Min Dew Pt 52.8 °F  2:55 am
Max Pressure 1013.0 hPa  8:45 pm
Min Pressure 1009.3 hPa  3:05 am
Max Wind 12 mph  3:55 pm
Max UV —   —
Max Solar —   —
Max Rainfall Rate —   —
Total Precipitation —   
Current Temp 63.5 °F  8:45 pm
Temp 24hr ago 64.4 °F  8:45 pm
Difference -0.9 °F  
Temp Rate -1.3 °F/hr  
Pressure Rate +0.3 hPa/hr  
time temp dew pt pressure uv solar wind wind speed rainfall rate
00:00 58.3 °F 53.8 °F 1011.1 hPa  Calm    
00:05 58.4 °F 53.9 °F 1011.1 hPa  Calm    
00:10 58.4 °F 53.9 °F 1011.1 hPa  Calm    
00:15 58.2 °F 53.7 °F 1011.2 hPa  W 2 mph   
00:20 57.9 °F 53.4 °F 1011.2 hPa  Calm    
00:25 58.0 °F 53.8 °F 1011.2 hPa  Calm    
00:30 58.0 °F 53.5 °F 1011.1 hPa  Calm    
00:35 58.0 °F 53.5 °F 1011.1 hPa  Calm    
00:40 57.9 °F 53.4 °F 1011.2 hPa  Calm    
00:45 57.7 °F 53.5 °F 1011.1 hPa  Calm    
00:50 57.6 °F 53.4 °F 1011.0 hPa  Calm    
00:55 57.7 °F 53.9 °F 1011.0 hPa  Calm    
01:00 58.0 °F 53.8 °F 1011.1 hPa  Calm    
01:05 58.2 °F 54.0 °F 1010.9 hPa  Calm    
01:10 58.4 °F 54.2 °F 1010.9 hPa  Calm    
01:15 58.6 °F 54.4 °F 1010.8 hPa  Calm    
01:20 58.8 °F 54.6 °F 1010.7 hPa  Calm    
01:25 59.0 °F 54.8 °F 1010.7 hPa  Calm    
01:30 59.0 °F 54.8 °F 1010.6 hPa  Calm    
01:35 59.0 °F 54.8 °F 1010.5 hPa  Calm    
01:40 59.0 °F 54.8 °F 1010.4 hPa  Calm    
01:45 59.0 °F 54.8 °F 1010.4 hPa  Calm    
01:50 58.9 °F 54.4 °F 1010.3 hPa  Calm    
01:55 58.7 °F 54.2 °F 1010.2 hPa  Calm    
02:00 58.4 °F 54.2 °F 1010.1 hPa  Calm    
02:05 58.1 °F 53.9 °F 1010.0 hPa  Calm    
02:10 57.9 °F 53.7 °F 1009.8 hPa  Calm    
02:15 57.7 °F 53.5 °F 1009.9 hPa  Calm    
02:20 57.4 °F 53.6 °F 1009.9 hPa  Calm    
02:25 57.1 °F 53.3 °F 1009.8 hPa  Calm    
02:30 56.9 °F 53.1 °F 1009.7 hPa  Calm    
02:35 56.8 °F 53.3 °F 1009.6 hPa  Calm    
02:40 56.7 °F 53.2 °F 1009.5 hPa  Calm    
02:45 56.6 °F 53.1 °F 1009.4 hPa  Calm    
02:50 56.5 °F 53.0 °F 1009.4 hPa  Calm    
02:55 56.3 °F 52.8 °F 1009.4 hPa  Calm    
03:00 56.2 °F 53.0 °F 1009.4 hPa  Calm    
03:05 56.4 °F 53.2 °F 1009.3 hPa  Calm    
03:10 56.4 °F 53.2 °F 1009.4 hPa  Calm    
03:15 56.4 °F 53.2 °F 1009.4 hPa  Calm    
03:20 56.6 °F 53.7 °F 1009.4 hPa  Calm    
03:25 57.0 °F 54.1 °F 1009.5 hPa  Calm    
03:30 57.5 °F 54.3 °F 1009.4 hPa  Calm    
03:35 57.9 °F 54.7 °F 1009.4 hPa  Calm    
03:40 58.1 °F 54.9 °F 1009.4 hPa  Calm    
03:45 58.3 °F 54.8 °F 1009.4 hPa  Calm    
03:50 58.5 °F 55.0 °F 1009.4 hPa  Calm    
03:55 58.6 °F 55.1 °F 1009.5 hPa  Calm    
04:00 58.7 °F 55.2 °F 1009.6 hPa  W 1 mph   
04:05 58.7 °F 54.8 °F 1009.6 hPa  Calm    
04:10 58.7 °F 54.8 °F 1009.6 hPa  Calm    
04:15 58.7 °F 54.8 °F 1009.6 hPa  Calm    
04:20 58.7 °F 54.8 °F 1009.6 hPa  Calm    
04:25 58.7 °F 54.5 °F 1009.6 hPa  Calm    
04:30 58.6 °F 54.7 °F 1009.6 hPa  Calm    
04:35 58.9 °F 55.0 °F 1009.6 hPa  Calm    
04:40 58.9 °F 54.7 °F 1009.6 hPa  Calm    
04:45 58.9 °F 54.7 °F 1009.7 hPa  Calm    
04:50 58.9 °F 55.0 °F 1009.7 hPa  Calm    
04:55 59.1 °F 54.9 °F 1009.7 hPa  Calm    
05:00 59.2 °F 55.0 °F 1009.8 hPa  Calm    
05:05 59.2 °F 55.0 °F 1009.7 hPa  Calm    
05:10 59.1 °F 54.9 °F 1009.8 hPa  Calm    
05:15 59.2 °F 55.0 °F 1009.9 hPa  Calm    
05:20 59.2 °F 55.0 °F 1009.9 hPa  Calm    
05:25 59.2 °F 55.0 °F 1009.9 hPa  N 1 mph   
05:30 59.3 °F 55.1 °F 1009.9 hPa  Calm    
05:35 59.2 °F 55.0 °F 1010.0 hPa  Calm    
05:40 59.3 °F 55.1 °F 1010.0 hPa  Calm    
05:45 59.4 °F 55.2 °F 1010.1 hPa  Calm    
05:50 59.5 °F 55.3 °F 1010.0 hPa  Calm    
05:55 59.5 °F 55.3 °F 1010.0 hPa  Calm    
06:00 59.5 °F 55.3 °F 1010.1 hPa  Calm    
06:05 59.5 °F 55.3 °F 1010.1 hPa  Calm    
06:10 59.6 °F 55.4 °F 1010.1 hPa  Calm    
06:15 59.7 °F 55.5 °F 1010.2 hPa  Calm    
06:20 59.7 °F 55.5 °F 1010.2 hPa  Calm    
06:25 59.7 °F 55.5 °F 1010.2 hPa  Calm    
06:30 59.6 °F 55.4 °F 1010.3 hPa  Calm    
06:35 59.7 °F 55.2 °F 1010.3 hPa  Calm    
06:40 59.6 °F 54.8 °F 1010.3 hPa  Calm    
06:45 59.5 °F 54.3 °F 1010.4 hPa  Calm    
06:50 59.4 °F 54.6 °F 1010.4 hPa  Calm    
06:55 59.4 °F 54.6 °F 1010.5 hPa  Calm    
07:00 59.5 °F 54.7 °F 1010.6 hPa  Calm    
07:05 59.6 °F 54.4 °F 1010.8 hPa  Calm    
07:10 59.8 °F 55.0 °F 1010.8 hPa  Calm    
07:15 59.9 °F 55.1 °F 1010.8 hPa  Calm    
07:20 59.9 °F 55.1 °F 1010.9 hPa  Calm    
07:25 60.1 °F 55.6 °F 1011.0 hPa  Calm    
07:30 60.5 °F 55.6 °F 1011.0 hPa  Calm    
07:35 60.7 °F 55.5 °F 1011.1 hPa  Calm    
07:40 60.6 °F 55.4 °F 1011.2 hPa  Calm    
07:45 60.6 °F 55.4 °F 1011.2 hPa  Calm    
07:50 60.8 °F 55.6 °F 1011.3 hPa  Calm    
07:55 61.0 °F 55.5 °F 1011.3 hPa  Calm    
08:00 60.9 °F 55.4 °F 1011.4 hPa  Calm    
08:05 60.9 °F 55.4 °F 1011.4 hPa  NW 1 mph   
08:10 60.8 °F 55.3 °F 1011.4 hPa  Calm    
08:15 61.3 °F 55.8 °F 1011.4 hPa  Calm    
08:20 61.5 °F 56.0 °F 1011.4 hPa  ENE 2 mph   
08:25 61.6 °F 55.7 °F 1011.4 hPa  ENE 2 mph   
08:30 61.3 °F 55.4 °F 1011.5 hPa  Calm    
08:35 61.1 °F 55.6 °F 1011.5 hPa  Calm    
08:40 61.4 °F 55.5 °F 1011.5 hPa  NW 3 mph   
08:45 61.4 °F 55.5 °F 1011.7 hPa  Calm    
08:50 61.4 °F 55.5 °F 1011.8 hPa  Calm    
08:55 61.9 °F 55.7 °F 1011.8 hPa  Calm    
09:00 62.2 °F 56.3 °F 1011.8 hPa  Calm    
09:05 62.5 °F 56.2 °F 1011.8 hPa  Calm    
09:10 62.8 °F 56.2 °F 1011.8 hPa  Calm    
09:15 63.3 °F 56.3 °F 1011.8 hPa  N 1 mph   
09:20 63.5 °F 56.2 °F 1011.8 hPa  Calm    
09:25 63.8 °F 56.4 °F 1011.8 hPa  Calm    
09:30 63.9 °F 56.2 °F 1011.7 hPa  Calm    
09:35 63.7 °F 56.3 °F 1011.7 hPa  Calm    
09:40 63.9 °F 56.5 °F 1011.6 hPa  ESE 1 mph   
09:45 63.8 °F 56.4 °F 1011.7 hPa  Calm    
09:50 64.4 °F 57.0 °F 1011.7 hPa  ESE 3 mph   
09:55 64.7 °F 56.6 °F 1011.9 hPa  Calm    
10:00 64.7 °F 57.0 °F 1011.9 hPa  SSE 2 mph   
10:05 64.6 °F 56.9 °F 1011.9 hPa  SW 6 mph   
10:10 64.5 °F 56.4 °F 1011.9 hPa  SW 4 mph   
10:15 64.3 °F 56.9 °F 1012.0 hPa  SE 4 mph   
10:20 64.6 °F 56.9 °F 1011.8 hPa  Calm    
10:25 64.9 °F 56.8 °F 1011.9 hPa  SE 1 mph   
10:30 65.1 °F 57.3 °F 1011.8 hPa  SE 3 mph   
10:35 65.3 °F 57.2 °F 1011.8 hPa  SE 4 mph   
10:40 65.2 °F 56.7 °F 1011.8 hPa  Calm    
10:45 64.8 °F 56.7 °F 1011.8 hPa  Calm    
10:50 65.0 °F 56.5 °F 1011.8 hPa  Calm    
10:55 65.5 °F 57.4 °F 1011.9 hPa  SE 1 mph   
11:00 66.1 °F 57.2 °F 1011.8 hPa  SSE 1 mph   
11:05 65.9 °F 57.0 °F 1011.8 hPa  Calm    
11:10 66.4 °F 57.5 °F 1011.8 hPa  SSE 3 mph   
11:15 66.8 °F 57.1 °F 1011.8 hPa  Calm    
11:20 67.1 °F 57.4 °F 1011.8 hPa  SSE 1 mph   
11:25 67.1 °F 57.0 °F 1011.8 hPa  Calm    
11:30 67.4 °F 57.3 °F 1011.8 hPa  S 4 mph   
11:35 67.9 °F 56.9 °F 1011.7 hPa  S 3 mph   
11:40 67.9 °F 57.3 °F 1011.7 hPa  SSE 1 mph   
11:45 68.4 °F 58.2 °F 1011.6 hPa  Calm    
11:50 69.2 °F 57.8 °F 1011.5 hPa  SSW 6 mph   
11:55 69.0 °F 57.2 °F 1011.5 hPa  SW 4 mph   
12:00 70.1 °F 58.2 °F 1011.5 hPa  SSE 3 mph   
12:05 70.9 °F 58.1 °F 1011.4 hPa  SSE 4 mph   
12:10 71.2 °F 57.9 °F 1011.5 hPa  ESE 7 mph   
12:15 71.2 °F 57.9 °F 1011.5 hPa  SW 6 mph   
12:20 71.7 °F 58.0 °F 1011.4 hPa  S 4 mph   
12:25 72.4 °F 57.7 °F 1011.4 hPa  SE 4 mph   
12:30 72.8 °F 58.6 °F 1011.3 hPa  ENE 4 mph   
12:35 73.7 °F 58.5 °F 1011.2 hPa  SSW 6 mph   
12:40 73.4 °F 58.7 °F 1011.2 hPa  SE 1 mph   
12:45 73.2 °F 59.4 °F 1011.1 hPa  SSE 4 mph   
12:50 74.4 °F 58.2 °F 1011.1 hPa  SW 6 mph   
12:55 73.7 °F 58.5 °F 1011.1 hPa  SSW 4 mph   
13:00 73.8 °F 58.1 °F 1011.1 hPa  WSW 7 mph   
13:05 73.7 °F 58.0 °F 1011.1 hPa  S 8 mph   
13:10 74.3 °F 58.6 °F 1011.0 hPa  SW 5 mph   
13:15 75.5 °F 59.2 °F 1010.9 hPa  S 8 mph   
13:20 74.7 °F 58.4 °F 1010.8 hPa  S 9 mph   
13:25 75.0 °F 58.7 °F 1010.8 hPa  SSW 7 mph   
13:30 75.3 °F 58.0 °F 1010.7 hPa  SW 8 mph   
13:35 75.9 °F 58.0 °F 1010.6 hPa  S 6 mph   
13:40 75.7 °F 58.4 °F 1010.6 hPa  SSW 4 mph   
13:45 75.5 °F 57.7 °F 1010.6 hPa  SW 6 mph   
13:50 75.3 °F 58.0 °F 1010.6 hPa  S 7 mph   
13:55 76.5 °F 58.6 °F 1010.6 hPa  W 7 mph   
14:00 76.9 °F 57.9 °F 1010.3 hPa  W 7 mph   
14:05 77.6 °F 58.0 °F 1010.4 hPa  S 9 mph   
14:10 76.9 °F 58.4 °F 1010.3 hPa  SSW 5 mph   
14:15 77.7 °F 58.1 °F 1010.3 hPa  SW 7 mph   
14:20 76.8 °F 57.8 °F 1010.3 hPa  W 9 mph   
14:25 77.5 °F 57.9 °F 1010.1 hPa  SW 7 mph   
14:30 78.2 °F 58.0 °F 1010.1 hPa  SW 8 mph   
14:35 78.7 °F 58.5 °F 1010.2 hPa  SW 7 mph   
14:40 78.5 °F 58.3 °F 1010.1 hPa  SW 9 mph   
14:45 78.0 °F 57.8 °F 1010.1 hPa  WSW 6 mph   
14:50 78.7 °F 57.9 °F 1010.1 hPa  SW 6 mph   
14:55 78.7 °F 57.9 °F 1010.1 hPa  ESE 9 mph   
15:00 77.9 °F 57.2 °F 1010.1 hPa  WSW 7 mph   
15:05 78.5 °F 57.2 °F 1010.0 hPa  SW 7 mph   
15:10 78.3 °F 57.5 °F 1009.9 hPa  SSW 9 mph   
15:15 78.8 °F 57.4 °F 1009.9 hPa  WNW 7 mph   
15:20 79.4 °F 57.4 °F 1010.0 hPa  SW 8 mph   
15:25 79.1 °F 57.1 °F 1009.9 hPa  SSW 8 mph   
15:30 79.2 °F 57.2 °F 1009.8 hPa  SSW 6 mph   
15:35 78.9 °F 56.9 °F 1009.8 hPa  WNW 8 mph   
15:40 79.2 °F 57.2 °F 1009.7 hPa  W 7 mph   
15:45 79.8 °F 57.2 °F 1009.8 hPa  WSW 6 mph   
15:50 80.2 °F 56.9 °F 1009.7 hPa  SSW 6 mph   
15:55 79.2 °F 57.8 °F 1009.7 hPa  WSW 12 mph   
16:00 79.4 °F 58.0 °F 1009.8 hPa  SW 5 mph   
16:05 78.6 °F 57.8 °F 1009.8 hPa  SW 9 mph   
16:10 78.0 °F 57.8 °F 1009.8 hPa  S 8 mph   
16:15 78.1 °F 57.9 °F 1009.8 hPa  W 5 mph   
16:20 76.9 °F 57.9 °F 1009.8 hPa  SW 8 mph   
16:25 77.6 °F 58.6 °F 1009.8 hPa  SW 7 mph   
16:30 76.9 °F 57.9 °F 1009.8 hPa  WSW 8 mph   
16:35 77.1 °F 58.1 °F 1009.7 hPa  SW 5 mph   
16:40 77.4 °F 57.8 °F 1009.8 hPa  SW 7 mph   
16:45 76.9 °F 57.9 °F 1009.8 hPa  SW 9 mph   
16:50 76.5 °F 58.1 °F 1009.8 hPa  SW 8 mph   
16:55 77.2 °F 58.2 °F 1009.9 hPa  SW 6 mph   
17:00 76.2 °F 57.8 °F 1009.8 hPa  SW 8 mph   
17:05 75.6 °F 57.8 °F 1009.9 hPa  SW 9 mph   
17:10 75.4 °F 57.6 °F 1009.9 hPa  SSW 8 mph   
17:15 75.4 °F 57.6 °F 1010.0 hPa  SW 8 mph   
17:20 75.3 °F 58.0 °F 1010.0 hPa  W 5 mph   
17:25 74.5 °F 57.8 °F 1010.0 hPa  W 9 mph   
17:30 74.3 °F 57.6 °F 1010.1 hPa  S 6 mph   
17:35 74.2 °F 57.5 °F 1010.2 hPa  WSW 7 mph   
17:40 73.9 °F 57.7 °F 1010.2 hPa  WSW 5 mph   
17:45 73.8 °F 57.6 °F 1010.3 hPa  SSW 6 mph   
17:50 73.1 °F 57.4 °F 1010.3 hPa  SW 7 mph   
17:55 73.0 °F 57.3 °F 1010.4 hPa  W 6 mph   
18:00 72.7 °F 57.1 °F 1010.5 hPa  SW 6 mph   
18:05 72.0 °F 56.9 °F 1010.5 hPa  SW 6 mph   
18:10 71.8 °F 57.2 °F 1010.6 hPa  SW 6 mph   
18:15 71.7 °F 57.1 °F 1010.6 hPa  SW 6 mph   
18:20 71.1 °F 57.0 °F 1010.8 hPa  SW 9 mph   
18:25 70.6 °F 56.9 °F 1010.8 hPa  SSW 6 mph   
18:30 70.0 °F 56.4 °F 1010.9 hPa  W 9 mph   
18:35 69.7 °F 56.5 °F 1011.0 hPa  WSW 7 mph   
18:40 69.7 °F 57.0 °F 1011.0 hPa  SSW 4 mph   
18:45 69.2 °F 56.5 °F 1011.1 hPa  WSW 6 mph   
18:50 68.6 °F 56.4 °F 1011.2 hPa  SW 6 mph   
18:55 67.9 °F 56.1 °F 1011.3 hPa  WSW 6 mph   
19:00 67.6 °F 56.2 °F 1011.5 hPa  SW 7 mph   
19:05 67.1 °F 56.2 °F 1011.6 hPa  SSW 7 mph   
19:10 66.7 °F 56.2 °F 1011.6 hPa  SW 5 mph   
19:15 66.6 °F 56.1 °F 1011.7 hPa  SW 4 mph   
19:20 66.5 °F 56.0 °F 1011.8 hPa  WSW 4 mph   
19:25 66.4 °F 56.3 °F 1011.8 hPa  SSW 5 mph   
19:30 66.0 °F 55.9 °F 1011.8 hPa  SW 5 mph   
19:35 65.8 °F 56.1 °F 1011.9 hPa  SW 4 mph   
19:40 65.6 °F 55.9 °F 1012.0 hPa  SW 5 mph   
19:45 65.4 °F 55.7 °F 1012.1 hPa  WSW 5 mph   
19:50 65.4 °F 55.7 °F 1012.2 hPa  Calm    
19:55 65.0 °F 55.7 °F 1012.3 hPa  WSW 3 mph   
20:00 64.7 °F 55.8 °F 1012.3 hPa  W 4 mph   
20:05 64.5 °F 55.6 °F 1012.4 hPa  WNW 4 mph   
20:10 64.6 °F 55.7 °F 1012.6 hPa  SW 1 mph   
20:15 64.2 °F 55.7 °F 1012.7 hPa  Calm    
20:20 64.1 °F 55.6 °F 1012.7 hPa  Calm    
20:25 64.0 °F 55.5 °F 1012.9 hPa  WSW 4 mph   
20:30 64.1 °F 55.6 °F 1012.9 hPa  Calm    
20:35 63.9 °F 55.4 °F 1012.9 hPa  Calm    
20:40 63.7 °F 55.6 °F 1012.9 hPa  W 3 mph   
20:45 63.5 °F 55.4 °F 1013.0 hPa  Calm